createdAt,value
2018-10-06T00:00:34.014Z,31.10
2018-10-06T00:03:10.033Z,31.11
2018-10-06T00:05:46.445Z,31.13
2018-10-06T00:08:22.441Z,31.14
2018-10-06T00:10:59.147Z,31.14
2018-10-06T00:13:35.268Z,31.15
2018-10-06T00:16:11.309Z,31.17
2018-10-06T00:18:47.637Z,31.16
2018-10-06T00:21:23.985Z,31.18
2018-10-06T00:23:59.953Z,31.18
2018-10-06T00:26:36.004Z,31.19
2018-10-06T00:29:11.914Z,31.19
2018-10-06T00:31:48.260Z,31.20
2018-10-06T00:34:24.454Z,31.21
2018-10-06T00:37:00.282Z,31.20
2018-10-06T00:39:36.277Z,31.21
2018-10-06T00:42:12.325Z,31.21
2018-10-06T00:44:48.462Z,31.21
2018-10-06T00:47:25.631Z,31.21
2018-10-06T00:50:01.687Z,31.21
2018-10-06T00:52:38.145Z,31.23
2018-10-06T00:55:14.624Z,31.24
2018-10-06T00:57:51.065Z,31.24
2018-10-06T01:00:27.198Z,31.23
2018-10-06T01:03:03.286Z,31.23
2018-10-06T01:05:39.415Z,31.23
2018-10-06T01:08:15.418Z,31.23
2018-10-06T01:10:51.294Z,31.25
2018-10-06T01:13:27.642Z,31.25
2018-10-06T01:16:03.643Z,31.25
2018-10-06T01:18:39.648Z,31.26
2018-10-06T01:21:15.537Z,31.25
2018-10-06T01:23:51.330Z,31.25
2018-10-06T01:26:28.111Z,31.27
2018-10-06T01:29:04.474Z,31.26
2018-10-06T01:31:40.521Z,31.27
2018-10-06T01:34:17.105Z,31.27
2018-10-06T01:36:53.473Z,31.28
2018-10-06T01:39:29.718Z,31.29
2018-10-06T01:42:06.194Z,31.29
2018-10-06T01:44:42.318Z,31.28
2018-10-06T01:47:18.606Z,31.27
2018-10-06T01:49:55.289Z,31.27
2018-10-06T01:52:31.293Z,31.25
2018-10-06T01:55:07.490Z,31.26
2018-10-06T01:57:43.703Z,31.25
2018-10-06T02:00:20.873Z,31.24
2018-10-06T02:02:57.286Z,31.23
2018-10-06T02:05:33.549Z,31.22
2018-10-06T02:08:09.813Z,31.21
2018-10-06T02:10:46.849Z,31.20
2018-10-06T02:13:23.110Z,31.20
2018-10-06T02:15:59.286Z,31.20
2018-10-06T02:18:35.318Z,31.19
2018-10-06T02:21:11.507Z,31.20
2018-10-06T02:23:48.289Z,31.19
2018-10-06T02:26:24.497Z,31.19
2018-10-06T02:29:00.605Z,31.18
2018-10-06T02:31:37.013Z,31.17
2018-10-06T02:34:13.267Z,31.16
2018-10-06T02:36:49.761Z,31.16
2018-10-06T02:39:26.450Z,31.11
2018-10-06T02:42:02.905Z,31.14
2018-10-06T02:44:39.008Z,31.14
2018-10-06T02:47:15.232Z,31.13
2018-10-06T02:49:51.349Z,31.14
2018-10-06T02:52:27.544Z,31.14
2018-10-06T02:55:03.995Z,31.15
2018-10-06T02:57:40.341Z,31.14
2018-10-06T03:00:16.711Z,31.13
2018-10-06T03:02:52.541Z,31.13
2018-10-06T03:05:28.698Z,31.13
2018-10-06T03:08:05.215Z,31.11
2018-10-06T03:10:41.695Z,31.11
2018-10-06T03:13:17.669Z,31.10
2018-10-06T03:15:54.713Z,31.11
2018-10-06T03:18:31.216Z,31.09
2018-10-06T03:21:07.246Z,31.09
2018-10-06T03:23:43.320Z,31.07
2018-10-06T03:26:19.365Z,31.07
2018-10-06T03:28:55.289Z,31.06
2018-10-06T03:31:31.506Z,31.06
2018-10-06T03:34:07.573Z,31.07
2018-10-06T03:36:44.153Z,31.05
2018-10-06T03:39:20.473Z,31.05
2018-10-06T03:41:56.355Z,31.05
2018-10-06T03:44:33.150Z,31.03
2018-10-06T03:47:09.259Z,31.04
2018-10-06T03:49:45.526Z,31.02
2018-10-06T03:52:22.121Z,31.03
2018-10-06T03:54:58.540Z,31.02
2018-10-06T03:57:34.736Z,31.00
2018-10-06T04:00:11.361Z,31.02
2018-10-06T04:02:47.362Z,31.01
2018-10-06T04:05:25.526Z,30.99
2018-10-06T04:08:02.270Z,30.99
2018-10-06T04:10:38.484Z,30.99
2018-10-06T04:13:14.690Z,31.00
2018-10-06T04:15:51.067Z,30.98
2018-10-06T04:18:27.590Z,30.95
2018-10-06T04:21:03.624Z,30.95
2018-10-06T04:23:40.006Z,30.95
2018-10-06T04:26:16.199Z,30.94
2018-10-06T04:28:52.579Z,30.94
2018-10-06T04:33:15.284Z,30.93
2018-10-06T04:35:51.494Z,30.94
2018-10-06T04:38:27.376Z,30.94
2018-10-06T04:41:03.349Z,30.93
2018-10-06T04:43:39.380Z,30.93
2018-10-06T04:46:15.817Z,30.93
2018-10-06T04:48:52.156Z,30.92
2018-10-06T04:51:28.603Z,30.92
2018-10-06T04:54:04.751Z,30.92
2018-10-06T04:56:41.182Z,30.92
2018-10-06T04:59:17.381Z,30.92
2018-10-06T05:01:53.722Z,30.92
2018-10-06T05:04:30.375Z,30.91
2018-10-06T05:07:07.604Z,30.90
2018-10-06T05:09:43.867Z,30.91
2018-10-06T05:12:20.391Z,30.90
2018-10-06T05:14:56.357Z,30.90
2018-10-06T05:17:32.986Z,30.85
2018-10-06T05:20:09.391Z,30.88
2018-10-06T05:22:46.150Z,30.88
2018-10-06T05:25:22.723Z,30.88
2018-10-06T05:27:58.577Z,30.87
2018-10-06T05:30:35.198Z,30.87
2018-10-06T05:33:11.618Z,30.88
2018-10-06T05:35:47.586Z,30.90
2018-10-06T05:38:23.612Z,30.90
2018-10-06T05:40:59.649Z,30.91
2018-10-06T05:43:36.062Z,30.90
2018-10-06T05:46:12.441Z,30.92
2018-10-06T05:48:49.257Z,30.93
2018-10-06T05:51:25.377Z,30.93
2018-10-06T05:54:01.863Z,30.92
2018-10-06T05:56:38.405Z,30.92
2018-10-06T05:59:14.600Z,30.92
2018-10-06T06:01:50.712Z,30.94
2018-10-06T06:04:27.038Z,30.93
2018-10-06T06:07:03.010Z,30.94
2018-10-06T06:09:40.169Z,30.92
2018-10-06T06:12:16.533Z,30.93
2018-10-06T06:14:52.601Z,30.92
2018-10-06T06:17:28.807Z,30.91
2018-10-06T06:20:05.382Z,30.89
2018-10-06T06:22:41.816Z,30.89
2018-10-06T06:25:18.407Z,30.87
2018-10-06T06:27:54.380Z,30.87
2018-10-06T06:30:30.442Z,30.86
2018-10-06T06:33:06.602Z,30.84
2018-10-06T06:35:42.419Z,30.85
2018-10-06T06:38:18.895Z,30.83
2018-10-06T06:40:55.330Z,30.82
2018-10-06T06:43:31.491Z,30.78
2018-10-06T06:46:07.326Z,30.76
2018-10-06T06:48:43.413Z,30.75
2018-10-06T06:51:20.341Z,30.73
2018-10-06T06:53:56.692Z,30.72
2018-10-06T06:56:32.749Z,30.71
2018-10-06T06:59:08.765Z,30.67
2018-10-06T07:01:45.420Z,30.65
2018-10-06T07:06:18.105Z,30.61
2018-10-06T07:08:54.422Z,30.60
2018-10-06T07:11:30.360Z,30.58
2018-10-06T07:14:06.720Z,30.56
2018-10-06T07:16:42.923Z,30.54
2018-10-06T07:19:19.419Z,30.51
2018-10-06T07:21:55.310Z,30.47
2018-10-06T07:24:31.462Z,30.44
2018-10-06T07:27:07.414Z,30.41
2018-10-06T07:29:44.608Z,30.38
2018-10-06T07:32:20.345Z,30.35
2018-10-06T07:34:56.657Z,30.33
2018-10-06T07:37:32.781Z,30.32
2018-10-06T07:40:09.665Z,30.30
2018-10-06T07:42:45.736Z,30.28
2018-10-06T07:45:21.790Z,30.25
2018-10-06T07:47:57.656Z,30.25
2018-10-06T07:50:34.163Z,30.23
2018-10-06T07:53:11.754Z,30.19
2018-10-06T07:55:48.431Z,30.20
2018-10-06T07:58:24.510Z,30.20
2018-10-06T08:01:00.476Z,30.16
2018-10-06T08:03:37.626Z,30.14
2018-10-06T08:06:13.858Z,30.12
2018-10-06T08:08:49.910Z,30.09
2018-10-06T08:11:26.051Z,30.05
2018-10-06T08:14:02.785Z,30.03
2018-10-06T08:16:39.205Z,30.00
2018-10-06T08:19:15.450Z,29.96
2018-10-06T08:21:51.237Z,29.93
2018-10-06T08:24:27.453Z,29.89
2018-10-06T08:27:04.149Z,29.86
2018-10-06T08:29:40.071Z,29.77
2018-10-06T08:32:16.210Z,29.78
2018-10-06T08:34:52.626Z,29.74
2018-10-06T08:37:29.109Z,29.70
2018-10-06T08:40:05.521Z,29.67
2018-10-06T08:42:41.755Z,29.65
2018-10-06T08:45:18.132Z,29.61
2018-10-06T08:47:54.467Z,29.60
2018-10-06T08:50:30.737Z,29.56
2018-10-06T08:53:06.821Z,29.57
2018-10-06T08:55:42.814Z,29.56
2018-10-06T08:58:18.653Z,29.53
2018-10-06T09:00:54.462Z,29.51
2018-10-06T09:03:30.929Z,29.49
2018-10-06T09:06:07.420Z,29.47
2018-10-06T09:08:43.831Z,29.45
2018-10-06T09:11:20.457Z,29.44
2018-10-06T09:13:56.468Z,29.42
2018-10-06T09:16:33.034Z,29.41
2018-10-06T09:19:09.228Z,29.39
2018-10-06T09:21:45.868Z,29.37
2018-10-06T09:24:22.213Z,29.37
2018-10-06T09:26:58.809Z,29.35
2018-10-06T09:29:35.655Z,29.34
2018-10-06T09:32:12.232Z,29.31
2018-10-06T09:34:48.473Z,29.30
2018-10-06T09:37:24.659Z,29.28
2018-10-06T09:40:00.965Z,29.26
2018-10-06T09:42:37.432Z,29.25
2018-10-06T09:45:13.886Z,29.20
2018-10-06T09:47:50.388Z,29.21
2018-10-06T09:50:26.693Z,29.18
2018-10-06T09:53:03.481Z,29.16
2018-10-06T09:55:39.610Z,29.12
2018-10-06T09:58:15.606Z,29.04
2018-10-06T10:00:55.818Z,29.04
2018-10-06T10:03:35.669Z,29.06
2018-10-06T10:06:12.188Z,29.10
2018-10-06T10:08:48.491Z,29.13
2018-10-06T10:11:24.469Z,29.14
2018-10-06T10:14:00.485Z,29.16
2018-10-06T10:16:36.657Z,29.17
2018-10-06T10:19:12.843Z,29.16
2018-10-06T10:21:49.502Z,29.18
2018-10-06T10:24:25.905Z,29.12
2018-10-06T10:27:49.201Z,29.17
2018-10-06T10:30:25.302Z,29.20
2018-10-06T10:33:01.837Z,29.20
2018-10-06T10:35:38.515Z,29.21
2018-10-06T10:38:14.677Z,29.21
2018-10-06T10:40:50.411Z,29.20
2018-10-06T10:43:26.511Z,29.20
2018-10-06T10:46:02.421Z,29.22
2018-10-06T10:48:38.507Z,29.23
2018-10-06T10:51:14.473Z,29.22
2018-10-06T10:53:50.626Z,29.22
2018-10-06T10:56:26.500Z,29.22
2018-10-06T10:59:02.420Z,29.21
2018-10-06T11:01:38.503Z,29.22
2018-10-06T11:04:14.522Z,29.21
2018-10-06T11:06:50.501Z,29.21
2018-10-06T11:09:26.408Z,29.20
2018-10-06T11:12:02.509Z,29.19
2018-10-06T11:14:38.501Z,29.20
2018-10-06T11:17:14.646Z,29.20
2018-10-06T11:19:50.847Z,29.19
2018-10-06T11:22:27.291Z,29.18
2018-10-06T11:25:03.962Z,29.17
2018-10-06T11:27:40.236Z,29.16
2018-10-06T11:30:16.509Z,29.14
2018-10-06T11:32:52.692Z,29.14
2018-10-06T11:35:28.687Z,29.13
2018-10-06T11:38:04.744Z,29.13
2018-10-06T11:40:40.905Z,29.12
2018-10-06T11:43:16.685Z,29.11
2018-10-06T11:45:52.872Z,29.10
2018-10-06T11:48:28.709Z,29.07
2018-10-06T11:51:05.183Z,29.05
2018-10-06T11:53:41.513Z,29.05
2018-10-06T11:56:17.530Z,29.05
2018-10-06T11:58:53.645Z,29.04
2018-10-06T12:01:29.858Z,29.04
2018-10-06T12:04:06.229Z,29.01
2018-10-06T12:06:42.591Z,29.00
2018-10-06T12:09:18.525Z,29.00
2018-10-06T12:11:54.506Z,29.01
2018-10-06T12:14:32.017Z,29.00
2018-10-06T12:17:08.466Z,28.97
2018-10-06T12:19:44.433Z,28.99
2018-10-06T12:22:20.565Z,29.00
2018-10-06T12:24:56.533Z,28.99
2018-10-06T12:27:32.865Z,28.98
2018-10-06T12:30:09.362Z,28.96
2018-10-06T12:32:45.462Z,28.95
2018-10-06T12:35:22.243Z,28.94
2018-10-06T12:37:58.510Z,28.93
2018-10-06T12:40:34.376Z,28.91
2018-10-06T12:43:10.752Z,28.91
2018-10-06T12:45:47.386Z,28.91
2018-10-06T12:48:23.561Z,28.91
2018-10-06T12:50:59.542Z,28.90
2018-10-06T12:53:36.390Z,28.89
2018-10-06T12:56:12.237Z,28.86
2018-10-06T12:58:48.525Z,28.85
2018-10-06T13:01:24.543Z,28.84
2018-10-06T13:04:00.557Z,28.85
2018-10-06T13:06:36.544Z,28.84
2018-10-06T13:09:14.457Z,28.82
2018-10-06T13:11:50.740Z,28.82
2018-10-06T13:14:26.551Z,28.80
2018-10-06T13:17:02.455Z,28.80
2018-10-06T13:19:38.530Z,28.76
2018-10-06T13:22:14.552Z,28.77
2018-10-06T13:24:50.678Z,28.76
2018-10-06T13:27:26.553Z,28.75
2018-10-06T13:30:02.895Z,28.74
2018-10-06T13:32:39.386Z,28.75
2018-10-06T13:35:15.927Z,28.74
2018-10-06T13:37:51.988Z,28.75
2018-10-06T13:40:28.462Z,28.74
2018-10-06T13:43:04.737Z,28.73
2018-10-06T13:45:40.897Z,28.73
2018-10-06T13:48:17.238Z,28.73
2018-10-06T13:50:53.561Z,28.73
2018-10-06T13:53:29.573Z,28.75
2018-10-06T13:56:05.742Z,28.76
2018-10-06T13:58:41.790Z,28.76
2018-10-06T14:01:18.282Z,28.75
2018-10-06T14:03:54.562Z,28.74
2018-10-06T14:06:30.841Z,28.73
2018-10-06T14:09:07.305Z,28.69
2018-10-06T14:11:43.468Z,28.68
2018-10-06T14:14:19.468Z,28.66
2018-10-06T14:16:55.316Z,28.63
2018-10-06T14:19:31.554Z,28.60
2018-10-06T14:22:07.762Z,28.56
2018-10-06T14:24:44.105Z,28.53
2018-10-06T14:27:20.469Z,28.50
2018-10-06T14:29:56.933Z,28.45
2018-10-06T14:32:32.986Z,28.40
2018-10-06T14:35:08.820Z,28.37
2018-10-06T14:37:44.954Z,28.33
2018-10-06T14:40:21.347Z,28.29
2018-10-06T14:42:57.437Z,28.27
2018-10-06T14:45:33.604Z,28.24
2018-10-06T14:48:09.605Z,28.21
2018-10-06T14:50:45.749Z,28.19
2018-10-06T14:53:21.817Z,28.17
2018-10-06T14:55:58.200Z,28.13
2018-10-06T14:58:34.576Z,28.10
2018-10-06T15:01:12.045Z,28.07
2018-10-06T15:03:48.917Z,28.07
2018-10-06T15:06:26.378Z,28.05
2018-10-06T15:09:02.736Z,28.03
2018-10-06T15:11:38.937Z,28.01
2018-10-06T15:14:15.581Z,28.00
2018-10-06T15:16:51.422Z,27.97
2018-10-06T15:19:27.617Z,27.95
2018-10-06T15:22:03.586Z,27.93
2018-10-06T15:24:39.993Z,27.91
2018-10-06T15:27:16.014Z,27.93
2018-10-06T15:29:51.765Z,27.90
2018-10-06T15:32:27.931Z,27.89
2018-10-06T15:35:03.786Z,27.89
2018-10-06T15:37:40.043Z,27.89
2018-10-06T15:40:16.367Z,27.88
2018-10-06T15:42:52.655Z,27.88
2018-10-06T15:45:28.774Z,27.88
2018-10-06T15:48:04.773Z,27.88
2018-10-06T15:50:41.576Z,27.87
2018-10-06T15:53:17.721Z,27.85
2018-10-06T15:55:53.804Z,27.85
2018-10-06T15:58:29.993Z,27.84
2018-10-06T16:01:06.234Z,27.84
2018-10-06T16:03:42.362Z,27.83
2018-10-06T16:06:21.140Z,27.84
2018-10-06T16:08:57.805Z,27.84
2018-10-06T16:11:35.605Z,27.86
2018-10-06T16:14:11.727Z,27.87
2018-10-06T16:16:48.021Z,27.88
2018-10-06T16:19:23.804Z,27.90
2018-10-06T16:21:59.819Z,27.93
2018-10-06T16:24:36.361Z,27.93
2018-10-06T16:27:12.625Z,28.09
2018-10-06T16:29:48.605Z,28.24
2018-10-06T16:32:24.336Z,28.23
2018-10-06T16:35:01.262Z,28.17
2018-10-06T16:37:37.573Z,28.14
2018-10-06T16:40:14.180Z,28.12
2018-10-06T16:42:50.521Z,28.12
2018-10-06T16:45:26.616Z,28.10
2018-10-06T16:48:02.739Z,28.10
2018-10-06T16:50:38.621Z,28.12
2018-10-06T16:53:14.853Z,28.10
2018-10-06T16:55:50.619Z,28.10
2018-10-06T16:58:26.949Z,28.15
2018-10-06T17:01:02.997Z,28.16
2018-10-06T17:03:38.825Z,28.18
2018-10-06T17:06:15.309Z,28.20
2018-10-06T17:08:51.624Z,28.22
2018-10-06T17:11:27.622Z,28.24
2018-10-06T17:14:04.835Z,28.25
2018-10-06T17:16:40.793Z,28.28
2018-10-06T17:19:16.882Z,28.30
2018-10-06T17:21:52.861Z,28.31
2018-10-06T17:24:29.460Z,28.25
2018-10-06T17:27:05.798Z,28.35
2018-10-06T17:29:41.822Z,28.38
2018-10-06T17:32:18.041Z,28.41
2018-10-06T17:34:54.914Z,28.42
2018-10-06T17:37:30.925Z,28.45
2018-10-06T17:40:06.826Z,28.47
2018-10-06T17:42:42.816Z,28.49
2018-10-06T17:45:18.813Z,28.50
2018-10-06T17:47:54.917Z,28.53
2018-10-06T17:50:31.443Z,28.56
2018-10-06T17:53:07.477Z,28.57
2018-10-06T17:55:43.549Z,28.58
2018-10-06T17:58:19.818Z,28.62
2018-10-06T18:00:55.833Z,28.65
2018-10-06T18:03:31.976Z,28.66
2018-10-06T18:08:55.972Z,28.72
2018-10-06T18:11:32.550Z,28.79
2018-10-06T18:14:08.774Z,28.84
2018-10-06T18:16:44.818Z,28.89
2018-10-06T18:19:20.874Z,28.97
2018-10-06T18:21:56.618Z,29.02
2018-10-06T18:24:32.977Z,29.08
2018-10-06T18:27:09.479Z,29.15
2018-10-06T18:29:45.671Z,29.22
2018-10-06T18:32:21.830Z,29.30
2018-10-06T18:34:57.826Z,29.36
2018-10-06T18:37:33.855Z,29.45
2018-10-06T18:40:11.985Z,29.51
2018-10-06T18:42:48.306Z,29.58
2018-10-06T18:45:26.352Z,29.63
2018-10-06T18:48:02.653Z,29.71
2018-10-06T18:50:39.041Z,29.79
2018-10-06T18:53:16.668Z,29.80
2018-10-06T18:55:52.458Z,29.84
2018-10-06T18:58:28.423Z,29.88
2018-10-06T19:01:04.476Z,29.90
2018-10-06T19:03:40.531Z,29.94
2018-10-06T19:06:17.314Z,29.97
2018-10-06T19:08:53.650Z,30.01
2018-10-06T19:11:29.865Z,30.04
2018-10-06T19:14:06.699Z,30.05
2018-10-06T19:16:42.948Z,30.09
2018-10-06T19:19:19.143Z,30.12
2018-10-06T19:21:55.574Z,30.15
2018-10-06T19:24:31.697Z,30.17
2018-10-06T19:27:07.853Z,30.17
2018-10-06T19:29:43.842Z,30.20
2018-10-06T19:32:20.121Z,30.21
2018-10-06T19:34:56.802Z,30.21
2018-10-06T19:37:33.039Z,30.24
2018-10-06T19:40:09.375Z,30.25
2018-10-06T19:42:45.567Z,30.27
2018-10-06T19:45:22.862Z,30.28
2018-10-06T19:47:59.121Z,30.28
2018-10-06T19:50:35.543Z,30.29
2018-10-06T19:53:11.865Z,30.30
2018-10-06T19:55:48.329Z,30.32
2018-10-06T19:58:24.660Z,30.34
2018-10-06T20:01:01.046Z,30.34
2018-10-06T20:03:38.360Z,30.35
2018-10-06T20:06:14.861Z,30.35
2018-10-06T20:08:51.435Z,30.33
2018-10-06T20:11:27.853Z,30.35
2018-10-06T20:14:03.893Z,30.37
2018-10-06T20:16:40.465Z,30.38
2018-10-06T20:19:16.922Z,30.39
2018-10-06T20:21:52.910Z,30.39
2018-10-06T20:24:29.073Z,30.41
2018-10-06T20:27:05.388Z,30.41
2018-10-06T20:29:41.857Z,30.42
2018-10-06T20:32:17.865Z,30.44
2018-10-06T20:36:23.045Z,30.46
2018-10-06T20:38:59.522Z,30.45
2018-10-06T20:41:36.033Z,30.47
2018-10-06T20:44:11.958Z,30.49
2018-10-06T20:46:48.337Z,30.51
2018-10-06T20:49:25.355Z,30.52
2018-10-06T20:52:01.684Z,30.53
2018-10-06T20:54:38.294Z,30.54
2018-10-06T20:57:14.472Z,30.54
2018-10-06T20:59:51.069Z,30.53
2018-10-06T21:02:39.345Z,30.57
2018-10-06T21:08:59.401Z,30.62
2018-10-06T21:11:36.721Z,30.60
2018-10-06T21:14:13.034Z,30.63
2018-10-06T21:16:48.886Z,30.63
2018-10-06T21:19:24.891Z,30.65
2018-10-06T21:22:00.996Z,30.66
2018-10-06T21:24:38.347Z,30.67
2018-10-06T21:27:14.624Z,30.68
2018-10-06T21:29:50.886Z,30.69
2018-10-06T21:32:27.094Z,30.72
2018-10-06T21:35:03.690Z,30.73
2018-10-06T21:37:39.899Z,30.75
2018-10-06T21:40:15.924Z,30.77
2018-10-06T21:42:51.732Z,30.78
2018-10-06T21:45:27.728Z,30.81
2018-10-06T21:48:05.166Z,30.83
2018-10-06T21:50:41.547Z,30.84
2018-10-06T21:53:17.529Z,30.86
2018-10-06T21:55:53.922Z,30.87
2018-10-06T21:58:30.142Z,30.88
2018-10-06T22:01:13.385Z,30.92
2018-10-06T22:03:49.659Z,30.93
2018-10-06T22:06:25.866Z,30.95
2018-10-06T22:09:02.641Z,30.97
2018-10-06T22:11:38.725Z,30.99
2018-10-06T22:14:15.090Z,31.00
2018-10-06T22:16:51.558Z,31.03
2018-10-06T22:19:27.565Z,31.04
2018-10-06T22:22:03.902Z,31.03
2018-10-06T22:24:39.732Z,31.07
2018-10-06T22:27:15.730Z,31.08
2018-10-06T22:29:51.933Z,31.08
2018-10-06T22:32:28.509Z,31.12
2018-10-06T22:35:04.530Z,31.11
2018-10-06T22:37:40.933Z,31.13
2018-10-06T22:40:17.098Z,31.14
2018-10-06T22:42:53.204Z,31.14
2018-10-06T22:45:28.962Z,31.16
2018-10-06T22:48:05.042Z,31.18
2018-10-06T22:50:40.914Z,31.20
2018-10-06T22:53:17.129Z,31.21
2018-10-06T22:55:53.361Z,31.24
2018-10-06T22:58:29.589Z,31.24
2018-10-06T23:01:05.737Z,31.27
2018-10-06T23:03:42.083Z,31.27
2018-10-06T23:06:52.631Z,31.27
2018-10-06T23:09:28.924Z,31.28
2018-10-06T23:12:05.155Z,31.28
2018-10-06T23:14:41.369Z,31.30
2018-10-06T23:17:18.175Z,31.32
2018-10-06T23:19:53.957Z,31.32
2018-10-06T23:22:30.101Z,31.32
2018-10-06T23:25:06.469Z,31.33
2018-10-06T23:27:42.929Z,31.34
2018-10-06T23:30:19.051Z,31.33
2018-10-06T23:32:55.041Z,31.34
2018-10-06T23:35:31.107Z,31.37
2018-10-06T23:38:07.661Z,31.38
2018-10-06T23:40:44.101Z,31.38
2018-10-06T23:43:20.661Z,31.38
2018-10-06T23:45:56.689Z,31.38
2018-10-06T23:48:32.760Z,31.38
2018-10-06T23:51:09.117Z,31.41
2018-10-06T23:53:45.146Z,31.42
2018-10-06T23:56:21.146Z,31.42
2018-10-06T23:58:57.461Z,31.43
